createdAt,value
2022-08-04T00:00:40.432Z,20.70
2022-08-04T00:03:27.675Z,20.60
2022-08-04T00:06:05.462Z,20.53
2022-08-04T00:08:42.117Z,20.48
2022-08-04T00:11:15.376Z,20.42
2022-08-04T00:14:02.303Z,20.35
2022-08-04T00:16:38.704Z,20.33
2022-08-04T00:19:30.490Z,20.33
2022-08-04T00:22:01.010Z,20.29
2022-08-04T00:24:30.188Z,20.32
2022-08-04T00:26:57.267Z,20.34
2022-08-04T00:29:24.599Z,20.26
2022-08-04T00:31:56.443Z,20.21
2022-08-04T00:34:28.523Z,20.20
2022-08-04T00:36:55.740Z,20.21
2022-08-04T00:39:23.094Z,20.18
2022-08-04T00:42:19.108Z,20.20
2022-08-04T00:45:17.707Z,20.09
2022-08-04T00:48:10.717Z,20.10
2022-08-04T00:50:42.676Z,20.12
2022-08-04T00:53:28.004Z,20.27
2022-08-04T00:56:08.922Z,20.12
2022-08-04T00:59:09.664Z,20.13
2022-08-04T01:01:52.848Z,20.14
2022-08-04T01:04:42.162Z,20.22
2022-08-04T01:07:46.417Z,20.11
2022-08-04T01:10:42.254Z,20.10
2022-08-04T01:13:25.632Z,20.11
2022-08-04T01:15:56.354Z,20.12
2022-08-04T01:18:33.512Z,20.06
2022-08-04T01:21:11.256Z,20.02
2022-08-04T01:24:07.526Z,19.91
2022-08-04T01:26:57.682Z,19.89
2022-08-04T01:29:33.683Z,19.97
2022-08-04T01:32:21.072Z,20.03
2022-08-04T01:34:56.904Z,19.95
2022-08-04T01:37:41.841Z,19.86
2022-08-04T01:40:08.784Z,19.78
2022-08-04T01:42:36.944Z,19.58
2022-08-04T01:45:08.423Z,19.44
2022-08-04T01:47:37.752Z,19.45
2022-08-04T01:50:12.391Z,19.42
2022-08-04T01:52:40.609Z,19.41
2022-08-04T01:55:10.192Z,19.51
2022-08-04T01:57:45.931Z,19.44
2022-08-04T02:00:17.896Z,19.39
2022-08-04T02:02:45.768Z,19.40
2022-08-04T02:05:15.512Z,19.38
2022-08-04T02:08:01.298Z,19.41
2022-08-04T02:10:44.133Z,19.40
2022-08-04T02:13:33.551Z,19.41
2022-08-04T02:16:04.159Z,19.42
2022-08-04T02:18:41.557Z,19.41
2022-08-04T02:21:08.297Z,19.42
2022-08-04T02:23:37.279Z,19.39
2022-08-04T02:26:05.934Z,19.38
2022-08-04T02:28:36.170Z,19.41
2022-08-04T02:31:19.589Z,19.49
2022-08-04T02:33:52.734Z,19.61
2022-08-04T02:36:29.568Z,19.70
2022-08-04T02:38:59.524Z,19.66
2022-08-04T02:41:28.177Z,19.54
2022-08-04T02:44:02.520Z,19.54
2022-08-04T02:46:30.278Z,19.44
2022-08-04T02:48:57.454Z,19.26
2022-08-04T02:51:28.873Z,19.39
2022-08-04T02:53:57.824Z,19.26
2022-08-04T02:56:26.704Z,19.21
2022-08-04T02:58:58.435Z,19.17
2022-08-04T03:01:25.263Z,19.30
2022-08-04T03:04:00.695Z,19.22
2022-08-04T03:06:42.336Z,19.07
2022-08-04T03:09:24.703Z,18.99
2022-08-04T03:11:51.138Z,18.94
2022-08-04T03:14:51.667Z,18.92
2022-08-04T03:17:53.103Z,18.84
2022-08-04T03:20:50.591Z,18.72
2022-08-04T03:23:40.303Z,18.69
2022-08-04T03:26:25.192Z,18.77
2022-08-04T03:29:36.067Z,18.94
2022-08-04T03:32:12.995Z,19.00
2022-08-04T03:34:42.097Z,19.12
2022-08-04T03:37:15.539Z,19.02
2022-08-04T03:40:12.803Z,19.06
2022-08-04T03:42:51.634Z,19.04
2022-08-04T03:45:41.697Z,18.92
2022-08-04T03:48:44.785Z,18.82
2022-08-04T03:51:51.672Z,18.72
2022-08-04T03:54:32.507Z,18.68
2022-08-04T03:57:21.006Z,18.60
2022-08-04T03:59:57.280Z,18.60
2022-08-04T04:03:00.151Z,18.56
2022-08-04T04:05:29.913Z,18.57
2022-08-04T04:08:45.197Z,18.57
2022-08-04T04:11:34.771Z,18.60
2022-08-04T04:14:48.271Z,18.58
2022-08-04T04:17:20.858Z,18.62
2022-08-04T04:20:00.622Z,18.68
2022-08-04T04:22:51.426Z,18.71
2022-08-04T04:25:27.063Z,18.77
2022-08-04T04:28:44.693Z,18.84
2022-08-04T04:31:43.609Z,18.95
2022-08-04T04:34:25.424Z,19.06
2022-08-04T04:37:13.260Z,19.16
2022-08-04T04:39:51.899Z,19.25
2022-08-04T04:42:39.535Z,19.44
2022-08-04T04:45:23.448Z,19.53
2022-08-04T04:48:07.742Z,19.71
2022-08-04T04:50:54.689Z,19.85
2022-08-04T04:53:29.957Z,20.04
2022-08-04T04:56:30.996Z,20.09
2022-08-04T04:58:58.595Z,20.08
2022-08-04T05:02:09.667Z,20.03
2022-08-04T05:04:55.121Z,19.98
2022-08-04T05:07:38.070Z,20.02
2022-08-04T05:10:38.660Z,20.03
2022-08-04T05:14:35.211Z,20.22
2022-08-04T05:16:56.310Z,20.40
2022-08-04T05:19:34.898Z,20.50
2022-08-04T05:22:09.188Z,20.53
2022-08-04T05:24:39.504Z,20.47
2022-08-04T05:27:15.712Z,20.53
2022-08-04T05:29:50.285Z,20.65
2022-08-04T05:32:18.005Z,20.72
2022-08-04T05:34:49.653Z,20.76
2022-08-04T05:37:17.674Z,20.74
2022-08-04T05:39:58.919Z,20.85
2022-08-04T05:42:26.382Z,20.86
2022-08-04T05:44:53.546Z,21.00
2022-08-04T05:47:22.406Z,21.09
2022-08-04T05:50:01.334Z,21.09
2022-08-04T05:52:29.751Z,21.30
2022-08-04T05:54:57.099Z,21.37
2022-08-04T05:57:24.915Z,21.39
2022-08-04T05:59:52.183Z,21.68
2022-08-04T06:02:19.424Z,21.72
2022-08-04T06:04:49.344Z,21.91
2022-08-04T06:07:16.163Z,21.99
2022-08-04T06:09:42.985Z,21.97
2022-08-04T06:12:22.213Z,22.07
2022-08-04T06:14:52.889Z,22.19
2022-08-04T06:19:56.722Z,22.32
2022-08-04T06:20:19.930Z,22.33
2022-08-04T06:22:53.057Z,22.42
2022-08-04T06:25:22.841Z,22.57
2022-08-04T06:27:50.074Z,22.70
2022-08-04T06:30:19.230Z,22.82
2022-08-04T06:33:03.351Z,23.04
2022-08-04T06:35:32.854Z,23.13
2022-08-04T06:38:01.157Z,23.27
2022-08-04T06:40:30.822Z,23.40
2022-08-04T06:43:04.404Z,23.56
2022-08-04T06:45:34.123Z,23.54
2022-08-04T06:48:01.057Z,23.80
2022-08-04T06:51:28.658Z,23.85
2022-08-04T06:53:14.945Z,23.85
2022-08-04T06:55:45.494Z,23.99
2022-08-04T06:58:13.175Z,24.12
2022-08-04T07:00:42.157Z,24.23
2022-08-04T07:03:08.795Z,24.30
2022-08-04T07:05:35.991Z,24.40
2022-08-04T07:08:03.241Z,24.60
2022-08-04T07:10:31.417Z,24.60
2022-08-04T07:12:59.180Z,24.68
2022-08-04T07:15:26.453Z,24.77
2022-08-04T07:17:54.018Z,24.95
2022-08-04T07:20:35.289Z,25.00
2022-08-04T07:23:06.596Z,25.11
2022-08-04T07:25:58.843Z,25.19
2022-08-04T07:28:26.789Z,25.30
2022-08-04T07:30:54.752Z,25.29
2022-08-04T07:33:22.153Z,25.45
2022-08-04T07:36:06.039Z,25.43
2022-08-04T07:38:48.621Z,25.46
2022-08-04T07:41:40.387Z,25.72
2022-08-04T07:44:07.942Z,25.94
2022-08-04T07:46:35.173Z,26.02
2022-08-04T07:49:01.792Z,26.26
2022-08-04T07:51:30.420Z,26.33
2022-08-04T07:53:57.812Z,26.33
2022-08-04T07:56:26.376Z,26.45
2022-08-04T07:58:53.110Z,26.60
2022-08-04T08:01:19.909Z,26.77
2022-08-04T08:03:47.356Z,26.94
2022-08-04T08:06:17.811Z,27.20
2022-08-04T08:09:00.934Z,27.28
2022-08-04T08:12:35.502Z,27.51
2022-08-04T08:14:25.641Z,27.59
2022-08-04T08:16:52.332Z,27.73
2022-08-04T08:19:18.973Z,27.78
2022-08-04T08:21:59.606Z,27.85
2022-08-04T08:24:28.457Z,28.15
2022-08-04T08:26:56.809Z,28.38
2022-08-04T08:29:24.616Z,28.43
2022-08-04T08:31:56.639Z,28.65
2022-08-04T08:34:28.029Z,28.83
2022-08-04T08:37:04.289Z,28.94
2022-08-04T08:39:45.101Z,29.05
2022-08-04T08:42:50.326Z,29.15
2022-08-04T08:45:28.673Z,28.92
2022-08-04T08:48:46.709Z,28.97
2022-08-04T08:51:40.353Z,29.41
2022-08-04T08:54:32.658Z,29.24
2022-08-04T08:57:24.548Z,29.32
2022-08-04T09:00:03.209Z,29.40
2022-08-04T09:02:41.933Z,29.64
2022-08-04T09:05:24.804Z,29.94
2022-08-04T09:08:09.600Z,30.07
2022-08-04T09:10:46.470Z,29.92
2022-08-04T09:13:48.351Z,29.98
2022-08-04T09:16:17.853Z,29.69
2022-08-04T09:18:55.129Z,29.96
2022-08-04T09:21:38.394Z,30.29
2022-08-04T09:24:35.189Z,30.57
2022-08-04T09:27:28.662Z,30.88
2022-08-04T09:30:02.071Z,30.72
2022-08-04T09:32:38.638Z,30.94
2022-08-04T09:35:20.280Z,30.82
2022-08-04T09:38:26.446Z,31.19
2022-08-04T09:41:20.982Z,31.41
2022-08-04T09:44:52.268Z,31.29
2022-08-04T09:47:13.805Z,31.13
2022-08-04T09:49:45.908Z,31.48
2022-08-04T09:52:27.943Z,31.57
2022-08-04T09:55:12.108Z,31.03
2022-08-04T09:58:00.523Z,31.08
2022-08-04T10:00:40.849Z,30.95
2022-08-04T10:03:11.577Z,31.00
2022-08-04T10:06:11.065Z,30.98
2022-08-04T10:09:11.651Z,30.66
2022-08-04T10:12:03.902Z,30.65
2022-08-04T10:15:08.094Z,30.90
2022-08-04T10:17:50.384Z,30.68
2022-08-04T10:20:46.423Z,30.88
2022-08-04T10:23:56.500Z,30.52
2022-08-04T10:26:31.736Z,30.56
2022-08-04T10:29:03.673Z,30.54
2022-08-04T10:31:34.068Z,30.74
2022-08-04T10:34:03.223Z,30.88
2022-08-04T10:36:41.256Z,30.86
2022-08-04T10:39:42.234Z,31.09
2022-08-04T10:42:17.556Z,31.04
2022-08-04T10:44:57.735Z,31.37
2022-08-04T10:47:26.634Z,31.39
2022-08-04T10:50:00.527Z,31.45
2022-08-04T10:52:34.360Z,31.38
2022-08-04T10:55:07.277Z,31.17
2022-08-04T10:57:47.324Z,31.01
2022-08-04T11:00:19.733Z,31.46
2022-08-04T11:03:05.776Z,31.63
2022-08-04T11:05:44.412Z,31.35
2022-08-04T11:08:24.717Z,31.17
2022-08-04T11:11:22.238Z,31.16
2022-08-04T11:13:54.674Z,31.21
2022-08-04T11:16:24.455Z,31.14
2022-08-04T11:19:08.837Z,31.17
2022-08-04T11:21:40.348Z,31.00
2022-08-04T11:24:26.252Z,30.96
2022-08-04T11:27:01.473Z,31.45
2022-08-04T11:30:06.517Z,31.63
2022-08-04T11:32:47.417Z,31.44
2022-08-04T11:35:27.901Z,31.37
2022-08-04T11:38:52.477Z,31.48
2022-08-04T11:41:23.478Z,32.03
2022-08-04T11:44:03.221Z,31.69
2022-08-04T11:46:40.047Z,31.87
2022-08-04T11:49:57.562Z,32.43
2022-08-04T11:52:22.196Z,32.17
2022-08-04T11:54:52.738Z,32.01
2022-08-04T11:57:22.852Z,32.05
2022-08-04T12:00:07.750Z,32.09
2022-08-04T12:02:57.224Z,31.69
2022-08-04T12:05:37.865Z,31.77
2022-08-04T12:08:22.279Z,31.20
2022-08-04T12:11:11.015Z,30.88
2022-08-04T12:14:05.046Z,30.86
2022-08-04T12:16:53.989Z,31.20
2022-08-04T12:19:54.730Z,31.44
2022-08-04T12:22:25.116Z,31.35
2022-08-04T12:25:08.063Z,31.28
2022-08-04T12:27:42.902Z,31.51
2022-08-04T12:30:59.636Z,31.53
2022-08-04T12:34:03.021Z,31.78
2022-08-04T12:36:20.947Z,32.16
2022-08-04T12:39:10.387Z,32.06
2022-08-04T12:41:42.285Z,32.25
2022-08-04T12:44:36.537Z,32.10
2022-08-04T12:47:36.493Z,31.68
2022-08-04T12:49:48.131Z,31.70
2022-08-04T12:52:51.806Z,30.47
2022-08-04T12:55:15.592Z,29.99
2022-08-04T12:57:42.791Z,30.40
2022-08-04T13:00:10.886Z,30.95
2022-08-04T13:02:48.127Z,31.15
2022-08-04T13:05:17.118Z,31.28
2022-08-04T13:07:53.317Z,31.33
2022-08-04T13:10:30.393Z,31.46
2022-08-04T13:12:59.202Z,31.57
2022-08-04T13:15:28.008Z,31.67
2022-08-04T13:18:05.231Z,31.66
2022-08-04T13:20:42.449Z,31.71
2022-08-04T13:23:12.347Z,31.19
2022-08-04T13:26:45.048Z,31.30
2022-08-04T13:28:32.312Z,31.35
2022-08-04T13:31:00.647Z,31.67
2022-08-04T13:33:36.072Z,31.95
2022-08-04T13:36:03.869Z,31.98
2022-08-04T13:38:31.520Z,32.06
2022-08-04T13:41:02.449Z,32.49
2022-08-04T13:44:16.492Z,32.41
2022-08-04T13:46:27.787Z,32.31
2022-08-04T13:52:04.672Z,32.12
2022-08-04T13:54:45.129Z,32.09
2022-08-04T13:57:15.922Z,32.37
2022-08-04T13:59:45.798Z,32.32
2022-08-04T14:02:26.173Z,32.39
2022-08-04T14:04:57.241Z,32.40
2022-08-04T14:07:25.699Z,32.55
2022-08-04T14:10:02.921Z,32.55
2022-08-04T14:12:45.830Z,32.67
2022-08-04T14:15:54.946Z,32.83
2022-08-04T14:18:25.664Z,32.99
2022-08-04T14:21:09.319Z,32.87
2022-08-04T14:23:47.212Z,32.93
2022-08-04T14:26:18.840Z,33.03
2022-08-04T14:29:25.475Z,33.10
2022-08-04T14:31:32.354Z,32.90
2022-08-04T14:34:04.345Z,32.83
2022-08-04T14:36:49.589Z,32.98
2022-08-04T14:40:07.885Z,32.80
2022-08-04T14:42:54.696Z,32.69
2022-08-04T14:45:37.330Z,32.64
2022-08-04T14:48:18.802Z,32.63
2022-08-04T14:50:48.410Z,32.91
2022-08-04T14:53:17.361Z,33.19
2022-08-04T14:55:56.805Z,33.29
2022-08-04T14:58:35.009Z,32.97
2022-08-04T15:01:10.295Z,33.12
2022-08-04T15:03:50.133Z,33.40
2022-08-04T15:06:23.219Z,33.55
2022-08-04T15:08:51.241Z,33.10
2022-08-04T15:11:23.171Z,33.13
2022-08-04T15:13:50.582Z,33.15
2022-08-04T15:16:17.351Z,33.13
2022-08-04T15:18:44.138Z,33.13
2022-08-04T15:21:16.043Z,33.31
2022-08-04T15:23:42.683Z,33.46
2022-08-04T15:26:15.642Z,33.37
2022-08-04T15:28:48.783Z,33.44
2022-08-04T15:32:05.338Z,33.54
2022-08-04T15:34:02.636Z,33.60
2022-08-04T15:36:56.297Z,33.69
2022-08-04T15:39:39.214Z,33.84
2022-08-04T15:42:24.047Z,33.50
2022-08-04T15:45:13.693Z,33.68
2022-08-04T15:47:40.947Z,33.46
2022-08-04T15:50:12.222Z,33.20
2022-08-04T15:53:01.206Z,32.97
2022-08-04T15:55:39.586Z,33.13
2022-08-04T15:58:07.964Z,33.33
2022-08-04T16:00:49.858Z,33.28
2022-08-04T16:03:58.502Z,33.19
2022-08-04T16:06:20.872Z,33.01
2022-08-04T16:08:47.289Z,32.94
2022-08-04T16:11:31.499Z,32.77
2022-08-04T16:13:58.653Z,32.85
2022-08-04T16:16:31.513Z,32.72
2022-08-04T16:19:16.763Z,32.65
2022-08-04T16:21:54.491Z,32.73
2022-08-04T16:24:21.887Z,32.77
2022-08-04T16:27:08.454Z,32.89
2022-08-04T16:29:38.068Z,32.68
2022-08-04T16:32:04.780Z,32.60
2022-08-04T16:34:49.857Z,32.56
2022-08-04T16:37:19.065Z,32.31
2022-08-04T16:39:49.975Z,32.31
2022-08-04T16:42:30.293Z,31.95
2022-08-04T16:45:09.228Z,31.59
2022-08-04T16:47:48.363Z,31.27
2022-08-04T16:50:23.032Z,31.24
2022-08-04T16:52:54.229Z,31.16
2022-08-04T16:55:25.532Z,31.33
2022-08-04T16:57:55.858Z,31.28
2022-08-04T17:00:36.192Z,31.25
2022-08-04T17:03:06.811Z,31.49
2022-08-04T17:05:39.409Z,31.24
2022-08-04T17:10:55.998Z,31.00
2022-08-04T17:14:02.466Z,30.80
2022-08-04T17:16:18.818Z,30.65
2022-08-04T17:18:51.083Z,30.67
2022-08-04T17:21:30.224Z,30.78
2022-08-04T17:24:13.130Z,30.70
2022-08-04T17:26:45.259Z,30.58
2022-08-04T17:29:20.066Z,30.56
2022-08-04T17:31:46.863Z,30.46
2022-08-04T17:34:16.752Z,30.28
2022-08-04T17:36:46.153Z,30.21
2022-08-04T17:39:21.358Z,30.29
2022-08-04T17:41:49.061Z,30.29
2022-08-04T17:44:16.614Z,30.31
2022-08-04T17:46:48.423Z,30.38
2022-08-04T17:49:18.215Z,30.22
2022-08-04T17:52:05.298Z,29.96
2022-08-04T17:54:37.293Z,29.68
2022-08-04T17:57:20.137Z,29.41
2022-08-04T17:59:59.296Z,29.21
2022-08-04T18:02:32.533Z,29.05
2022-08-04T18:05:07.884Z,28.92
2022-08-04T18:08:38.682Z,28.74
2022-08-04T18:10:52.651Z,28.61
2022-08-04T18:13:26.948Z,28.47
2022-08-04T18:16:09.010Z,28.33
2022-08-04T18:18:41.393Z,28.26
2022-08-04T18:21:15.719Z,28.17
2022-08-04T18:23:51.109Z,28.05
2022-08-04T18:26:18.192Z,28.05
2022-08-04T18:28:50.618Z,27.95
2022-08-04T18:31:17.152Z,27.83
2022-08-04T18:33:43.743Z,27.75
2022-08-04T18:36:34.558Z,27.68
2022-08-04T18:39:12.444Z,27.58
2022-08-04T18:42:01.771Z,27.49
2022-08-04T18:44:51.927Z,27.44
2022-08-04T18:47:23.093Z,27.38
2022-08-04T18:50:40.214Z,27.31
2022-08-04T18:52:42.105Z,27.24
2022-08-04T18:55:13.299Z,27.15
2022-08-04T18:58:01.462Z,27.13
2022-08-04T19:00:32.735Z,27.04
2022-08-04T19:03:01.164Z,26.94
2022-08-04T19:05:37.792Z,26.85
2022-08-04T19:10:59.649Z,26.82
2022-08-04T19:13:27.857Z,26.74
2022-08-04T19:15:55.675Z,26.66
2022-08-04T19:18:25.583Z,26.60
2022-08-04T19:20:55.383Z,26.53
2022-08-04T19:24:29.532Z,26.46
2022-08-04T19:26:23.744Z,26.41
2022-08-04T19:28:54.991Z,26.36
2022-08-04T19:31:28.203Z,26.31
2022-08-04T19:34:04.730Z,26.25
2022-08-04T19:36:34.544Z,26.17
2022-08-04T19:39:11.604Z,25.97
2022-08-04T19:42:04.835Z,25.76
2022-08-04T19:44:25.098Z,25.59
2022-08-04T19:46:57.176Z,25.52
2022-08-04T19:50:03.202Z,25.51
2022-08-04T19:52:14.596Z,25.60
2022-08-04T19:55:00.188Z,25.61
2022-08-04T19:57:37.976Z,25.69
2022-08-04T20:00:10.088Z,25.71
2022-08-04T20:02:37.332Z,25.69
2022-08-04T20:05:08.646Z,25.72
2022-08-04T20:07:35.653Z,25.72
2022-08-04T20:10:04.804Z,25.70
2022-08-04T20:12:31.872Z,25.67
2022-08-04T20:14:59.604Z,25.61
2022-08-04T20:20:13.514Z,25.58
2022-08-04T20:22:52.854Z,25.53
2022-08-04T20:25:36.741Z,25.50
2022-08-04T20:28:04.907Z,25.45
2022-08-04T20:30:33.160Z,25.36
2022-08-04T20:33:01.128Z,25.28
2022-08-04T20:35:29.316Z,25.23
2022-08-04T20:38:00.749Z,25.16
2022-08-04T20:40:28.756Z,25.13
2022-08-04T20:42:57.412Z,25.11
2022-08-04T20:45:56.861Z,25.03
2022-08-04T20:48:11.673Z,24.93
2022-08-04T20:50:38.218Z,24.84
2022-08-04T20:53:16.844Z,24.88
2022-08-04T20:55:47.271Z,24.83
2022-08-04T20:58:27.591Z,24.70
2022-08-04T21:00:54.900Z,24.69
2022-08-04T21:03:21.516Z,24.62
2022-08-04T21:06:08.522Z,24.49
2022-08-04T21:08:35.081Z,24.43
2022-08-04T21:11:03.161Z,24.44
2022-08-04T21:13:52.263Z,24.43
2022-08-04T21:16:55.072Z,24.48
2022-08-04T21:19:13.484Z,24.57
2022-08-04T21:21:41.328Z,24.62
2022-08-04T21:24:09.317Z,24.65
2022-08-04T21:26:36.053Z,24.67
2022-08-04T21:29:04.624Z,24.64
2022-08-04T21:31:32.545Z,24.65
2022-08-04T21:34:17.099Z,24.61
2022-08-04T21:37:03.907Z,24.58
2022-08-04T21:39:32.635Z,24.52
2022-08-04T21:44:46.567Z,24.45
2022-08-04T21:47:45.916Z,24.28
2022-08-04T21:50:06.603Z,24.18
2022-08-04T21:52:33.413Z,24.09
2022-08-04T21:54:59.967Z,24.04
2022-08-04T21:57:27.480Z,23.98
2022-08-04T21:59:54.695Z,23.97
2022-08-04T22:02:21.924Z,23.94
2022-08-04T22:04:49.510Z,23.88
2022-08-04T22:07:16.899Z,23.86
2022-08-04T22:10:02.283Z,23.82
2022-08-04T22:12:30.378Z,23.75
2022-08-04T22:14:59.709Z,23.69
2022-08-04T22:17:35.211Z,23.63
2022-08-04T22:20:03.935Z,23.57
2022-08-04T22:22:34.347Z,23.54
2022-08-04T22:25:12.424Z,23.63
2022-08-04T22:28:00.837Z,23.61
2022-08-04T22:30:33.160Z,23.56
2022-08-04T22:33:04.624Z,23.52
2022-08-04T22:35:43.688Z,23.53
2022-08-04T22:38:24.080Z,23.50
2022-08-04T22:41:05.419Z,23.51
2022-08-04T22:43:34.549Z,23.54
2022-08-04T22:46:05.408Z,23.51
2022-08-04T22:48:34.766Z,23.53
2022-08-04T22:51:03.008Z,23.51
2022-08-04T22:53:30.377Z,23.46
2022-08-04T22:56:09.781Z,23.45
2022-08-04T22:58:40.085Z,23.48
2022-08-04T23:01:08.290Z,23.48
2022-08-04T23:03:37.501Z,23.55
2022-08-04T23:06:10.957Z,23.51
2022-08-04T23:08:39.213Z,23.45
2022-08-04T23:11:10.628Z,23.38
2022-08-04T23:13:37.731Z,23.41
2022-08-04T23:16:10.197Z,23.35
2022-08-04T23:18:40.221Z,23.28
2022-08-04T23:21:09.843Z,23.31
2022-08-04T23:23:37.082Z,23.25
2022-08-04T23:26:15.789Z,23.19
2022-08-04T23:28:43.310Z,23.30
2022-08-04T23:31:10.059Z,23.22
2022-08-04T23:33:51.421Z,23.16
2022-08-04T23:36:26.412Z,23.20
2022-08-04T23:39:03.925Z,23.08
2022-08-04T23:41:55.460Z,23.00
2022-08-04T23:44:25.119Z,22.94
2022-08-04T23:47:04.004Z,22.85
2022-08-04T23:49:43.543Z,22.81
2022-08-04T23:52:28.140Z,22.77
2022-08-04T23:54:58.649Z,22.96
2022-08-04T23:58:02.572Z,22.92
